sensor_id;sensor_type;location;lat;lon;timestamp;P1;durP1;ratioP1;P2;durP2;ratioP2
5147;SDS011;2592;48.140;7.614;2023-04-06T00:00:53;7.53;;;6.47;;
5147;SDS011;2592;48.140;7.614;2023-04-06T00:03:19;7.87;;;7.07;;
5147;SDS011;2592;48.140;7.614;2023-04-06T00:05:46;9.13;;;6.20;;
5147;SDS011;2592;48.140;7.614;2023-04-06T00:08:14;10.07;;;6.13;;
5147;SDS011;2592;48.140;7.614;2023-04-06T00:10:40;7.33;;;6.30;;
5147;SDS011;2592;48.140;7.614;2023-04-06T00:13:07;8.50;;;6.60;;
5147;SDS011;2592;48.140;7.614;2023-04-06T00:15:33;7.80;;;6.50;;
5147;SDS011;2592;48.140;7.614;2023-04-06T00:18:00;8.20;;;6.40;;
5147;SDS011;2592;48.140;7.614;2023-04-06T00:20:26;9.20;;;6.53;;
5147;SDS011;2592;48.140;7.614;2023-04-06T00:22:53;8.87;;;6.40;;
5147;SDS011;2592;48.140;7.614;2023-04-06T00:25:21;7.37;;;6.47;;
5147;SDS011;2592;48.140;7.614;2023-04-06T00:27:47;7.03;;;6.13;;
5147;SDS011;2592;48.140;7.614;2023-04-06T00:30:13;7.90;;;6.10;;
5147;SDS011;2592;48.140;7.614;2023-04-06T00:32:40;7.30;;;6.03;;
5147;SDS011;2592;48.140;7.614;2023-04-06T00:35:06;9.13;;;6.80;;
5147;SDS011;2592;48.140;7.614;2023-04-06T00:37:33;9.37;;;7.00;;
5147;SDS011;2592;48.140;7.614;2023-04-06T00:39:59;9.23;;;5.67;;
5147;SDS011;2592;48.140;7.614;2023-04-06T00:42:27;7.70;;;5.50;;
5147;SDS011;2592;48.140;7.614;2023-04-06T00:44:54;8.07;;;6.83;;
5147;SDS011;2592;48.140;7.614;2023-04-06T00:47:21;8.27;;;5.97;;
5147;SDS011;2592;48.140;7.614;2023-04-06T00:49:47;8.80;;;6.73;;
5147;SDS011;2592;48.140;7.614;2023-04-06T00:52:14;8.70;;;6.27;;
5147;SDS011;2592;48.140;7.614;2023-04-06T00:54:41;9.80;;;5.70;;
5147;SDS011;2592;48.140;7.614;2023-04-06T00:57:07;9.50;;;6.00;;
5147;SDS011;2592;48.140;7.614;2023-04-06T00:59:35;6.90;;;5.00;;
5147;SDS011;2592;48.140;7.614;2023-04-06T01:02:01;6.20;;;5.60;;
5147;SDS011;2592;48.140;7.614;2023-04-06T01:04:28;10.20;;;6.50;;
5147;SDS011;2592;48.140;7.614;2023-04-06T01:06:54;8.10;;;5.70;;
5147;SDS011;2592;48.140;7.614;2023-04-06T01:09:20;6.47;;;5.30;;
5147;SDS011;2592;48.140;7.614;2023-04-06T01:11:47;8.53;;;6.40;;
5147;SDS011;2592;48.140;7.614;2023-04-06T01:14:13;6.73;;;5.30;;
5147;SDS011;2592;48.140;7.614;2023-04-06T01:16:41;7.73;;;6.10;;
5147;SDS011;2592;48.140;7.614;2023-04-06T01:19:08;8.33;;;6.00;;
5147;SDS011;2592;48.140;7.614;2023-04-06T01:21:35;10.90;;;5.90;;
5147;SDS011;2592;48.140;7.614;2023-04-06T01:24:03;27.33;;;21.10;;
5147;SDS011;2592;48.140;7.614;2023-04-06T01:26:30;11.70;;;8.80;;
5147;SDS011;2592;48.140;7.614;2023-04-06T01:28:56;9.13;;;7.70;;
5147;SDS011;2592;48.140;7.614;2023-04-06T01:31:23;9.33;;;7.07;;
5147;SDS011;2592;48.140;7.614;2023-04-06T01:33:50;8.93;;;7.43;;
5147;SDS011;2592;48.140;7.614;2023-04-06T01:36:16;8.30;;;6.60;;
5147;SDS011;2592;48.140;7.614;2023-04-06T01:38:43;9.33;;;6.50;;
5147;SDS011;2592;48.140;7.614;2023-04-06T01:41:11;8.90;;;5.83;;
5147;SDS011;2592;48.140;7.614;2023-04-06T01:43:37;6.90;;;5.47;;
5147;SDS011;2592;48.140;7.614;2023-04-06T01:46:03;6.83;;;6.10;;
5147;SDS011;2592;48.140;7.614;2023-04-06T01:48:30;8.37;;;5.93;;
5147;SDS011;2592;48.140;7.614;2023-04-06T01:50:56;8.60;;;6.90;;
5147;SDS011;2592;48.140;7.614;2023-04-06T01:53:22;7.50;;;5.60;;
5147;SDS011;2592;48.140;7.614;2023-04-06T01:55:49;7.77;;;6.20;;
5147;SDS011;2592;48.140;7.614;2023-04-06T01:58:17;6.87;;;6.17;;
5147;SDS011;2592;48.140;7.614;2023-04-06T02:00:43;7.80;;;6.37;;
5147;SDS011;2592;48.140;7.614;2023-04-06T02:03:09;8.00;;;6.40;;
5147;SDS011;2592;48.140;7.614;2023-04-06T02:05:36;7.43;;;5.67;;
5147;SDS011;2592;48.140;7.614;2023-04-06T02:08:03;7.10;;;5.60;;
5147;SDS011;2592;48.140;7.614;2023-04-06T02:10:29;6.13;;;5.53;;
5147;SDS011;2592;48.140;7.614;2023-04-06T02:12:56;10.10;;;7.20;;
5147;SDS011;2592;48.140;7.614;2023-04-06T02:15:23;10.63;;;7.70;;
5147;SDS011;2592;48.140;7.614;2023-04-06T02:17:50;8.20;;;6.77;;
5147;SDS011;2592;48.140;7.614;2023-04-06T02:20:16;8.00;;;6.57;;
5147;SDS011;2592;48.140;7.614;2023-04-06T02:22:43;9.23;;;6.50;;
5147;SDS011;2592;48.140;7.614;2023-04-06T02:25:09;10.30;;;7.30;;
5147;SDS011;2592;48.140;7.614;2023-04-06T02:27:36;9.10;;;6.00;;
5147;SDS011;2592;48.140;7.614;2023-04-06T02:30:02;12.20;;;6.63;;
5147;SDS011;2592;48.140;7.614;2023-04-06T02:32:30;10.23;;;7.23;;
5147;SDS011;2592;48.140;7.614;2023-04-06T02:34:56;11.77;;;7.20;;
5147;SDS011;2592;48.140;7.614;2023-04-06T02:37:23;8.20;;;7.03;;
5147;SDS011;2592;48.140;7.614;2023-04-06T02:39:50;9.13;;;6.73;;
5147;SDS011;2592;48.140;7.614;2023-04-06T02:42:16;10.23;;;7.70;;
5147;SDS011;2592;48.140;7.614;2023-04-06T02:44:42;6.80;;;6.07;;
5147;SDS011;2592;48.140;7.614;2023-04-06T02:47:09;7.27;;;6.50;;
5147;SDS011;2592;48.140;7.614;2023-04-06T02:49:37;13.30;;;7.90;;
5147;SDS011;2592;48.140;7.614;2023-04-06T02:52:03;7.17;;;6.10;;
5147;SDS011;2592;48.140;7.614;2023-04-06T02:54:30;7.10;;;6.33;;
5147;SDS011;2592;48.140;7.614;2023-04-06T02:56:56;8.20;;;6.83;;
5147;SDS011;2592;48.140;7.614;2023-04-06T02:59:22;9.47;;;7.33;;
5147;SDS011;2592;48.140;7.614;2023-04-06T03:01:49;10.00;;;7.57;;
5147;SDS011;2592;48.140;7.614;2023-04-06T03:04:15;12.87;;;7.60;;
5147;SDS011;2592;48.140;7.614;2023-04-06T03:06:43;9.97;;;7.70;;
5147;SDS011;2592;48.140;7.614;2023-04-06T03:09:09;8.27;;;7.47;;
5147;SDS011;2592;48.140;7.614;2023-04-06T03:11:36;7.73;;;6.80;;
5147;SDS011;2592;48.140;7.614;2023-04-06T03:14:02;8.40;;;6.87;;
5147;SDS011;2592;48.140;7.614;2023-04-06T03:16:28;8.43;;;7.53;;
5147;SDS011;2592;48.140;7.614;2023-04-06T03:18:55;11.87;;;6.47;;
5147;SDS011;2592;48.140;7.614;2023-04-06T03:21:21;9.00;;;7.73;;
5147;SDS011;2592;48.140;7.614;2023-04-06T03:23:49;7.53;;;6.83;;
5147;SDS011;2592;48.140;7.614;2023-04-06T03:26:16;8.77;;;7.10;;
5147;SDS011;2592;48.140;7.614;2023-04-06T03:28:42;8.23;;;6.80;;
5147;SDS011;2592;48.140;7.614;2023-04-06T03:31:08;10.60;;;7.40;;
5147;SDS011;2592;48.140;7.614;2023-04-06T03:33:35;11.70;;;7.10;;
5147;SDS011;2592;48.140;7.614;2023-04-06T03:36:01;7.90;;;6.70;;
5147;SDS011;2592;48.140;7.614;2023-04-06T03:38:27;7.90;;;7.10;;
5147;SDS011;2592;48.140;7.614;2023-04-06T03:40:55;10.07;;;6.93;;
5147;SDS011;2592;48.140;7.614;2023-04-06T03:43:22;104.57;;;65.03;;
5147;SDS011;2592;48.140;7.614;2023-04-06T03:45:48;164.27;;;108.03;;
5147;SDS011;2592;48.140;7.614;2023-04-06T03:48:14;58.13;;;39.30;;
5147;SDS011;2592;48.140;7.614;2023-04-06T03:50:41;12.57;;;11.03;;
5147;SDS011;2592;48.140;7.614;2023-04-06T03:53:07;9.67;;;8.43;;
5147;SDS011;2592;48.140;7.614;2023-04-06T03:55:34;11.43;;;9.50;;
5147;SDS011;2592;48.140;7.614;2023-04-06T03:58:01;11.93;;;9.87;;
5147;SDS011;2592;48.140;7.614;2023-04-06T04:00:28;15.00;;;13.40;;
5147;SDS011;2592;48.140;7.614;2023-04-06T04:02:55;9.73;;;8.83;;
5147;SDS011;2592;48.140;7.614;2023-04-06T04:05:21;9.97;;;8.27;;
5147;SDS011;2592;48.140;7.614;2023-04-06T04:07:50;11.73;;;8.10;;
5147;SDS011;2592;48.140;7.614;2023-04-06T04:10:16;8.90;;;7.43;;
5147;SDS011;2592;48.140;7.614;2023-04-06T04:12:42;11.60;;;6.80;;
5147;SDS011;2592;48.140;7.614;2023-04-06T04:15:10;10.13;;;9.13;;
5147;SDS011;2592;48.140;7.614;2023-04-06T04:17:37;12.17;;;7.50;;
5147;SDS011;2592;48.140;7.614;2023-04-06T04:20:04;8.97;;;8.07;;
5147;SDS011;2592;48.140;7.614;2023-04-06T04:22:30;10.20;;;8.27;;
5147;SDS011;2592;48.140;7.614;2023-04-06T04:24:57;9.47;;;8.43;;
5147;SDS011;2592;48.140;7.614;2023-04-06T04:27:23;31.77;;;8.33;;
5147;SDS011;2592;48.140;7.614;2023-04-06T04:29:49;8.87;;;6.97;;
5147;SDS011;2592;48.140;7.614;2023-04-06T04:32:17;7.73;;;6.53;;
5147;SDS011;2592;48.140;7.614;2023-04-06T04:34:44;10.50;;;6.73;;
5147;SDS011;2592;48.140;7.614;2023-04-06T04:37:10;9.10;;;7.20;;
5147;SDS011;2592;48.140;7.614;2023-04-06T04:39:37;9.17;;;7.30;;
5147;SDS011;2592;48.140;7.614;2023-04-06T04:42:03;8.10;;;7.30;;
5147;SDS011;2592;48.140;7.614;2023-04-06T04:44:29;7.20;;;6.50;;
5147;SDS011;2592;48.140;7.614;2023-04-06T04:46:56;12.27;;;7.00;;
5147;SDS011;2592;48.140;7.614;2023-04-06T04:49:24;7.70;;;6.90;;
5147;SDS011;2592;48.140;7.614;2023-04-06T04:51:50;9.70;;;7.50;;
5147;SDS011;2592;48.140;7.614;2023-04-06T04:54:17;9.70;;;8.60;;
5147;SDS011;2592;48.140;7.614;2023-04-06T04:56:44;12.37;;;8.07;;
5147;SDS011;2592;48.140;7.614;2023-04-06T04:59:10;9.20;;;7.77;;
5147;SDS011;2592;48.140;7.614;2023-04-06T05:01:37;11.00;;;7.97;;
5147;SDS011;2592;48.140;7.614;2023-04-06T05:04:03;19.70;;;7.73;;
5147;SDS011;2592;48.140;7.614;2023-04-06T05:06:31;8.87;;;6.87;;
5147;SDS011;2592;48.140;7.614;2023-04-06T05:08:57;9.97;;;8.97;;
5147;SDS011;2592;48.140;7.614;2023-04-06T05:11:24;10.60;;;9.50;;
5147;SDS011;2592;48.140;7.614;2023-04-06T05:13:50;11.37;;;8.80;;
5147;SDS011;2592;48.140;7.614;2023-04-06T05:16:16;13.43;;;8.60;;
5147;SDS011;2592;48.140;7.614;2023-04-06T05:18:43;12.70;;;8.60;;
5147;SDS011;2592;48.140;7.614;2023-04-06T05:21:09;10.83;;;8.10;;
5147;SDS011;2592;48.140;7.614;2023-04-06T05:23:37;7.63;;;6.63;;
5147;SDS011;2592;48.140;7.614;2023-04-06T05:26:04;9.27;;;6.93;;
5147;SDS011;2592;48.140;7.614;2023-04-06T05:28:31;8.67;;;7.10;;
5147;SDS011;2592;48.140;7.614;2023-04-06T05:30:57;9.30;;;7.23;;
5147;SDS011;2592;48.140;7.614;2023-04-06T05:33:23;12.70;;;7.50;;
5147;SDS011;2592;48.140;7.614;2023-04-06T05:35:50;12.23;;;8.83;;
5147;SDS011;2592;48.140;7.614;2023-04-06T05:38:16;10.23;;;8.60;;
5147;SDS011;2592;48.140;7.614;2023-04-06T05:40:44;11.20;;;7.80;;
5147;SDS011;2592;48.140;7.614;2023-04-06T05:43:10;12.30;;;9.37;;
5147;SDS011;2592;48.140;7.614;2023-04-06T05:45:37;12.40;;;9.73;;
5147;SDS011;2592;48.140;7.614;2023-04-06T05:48:03;12.00;;;9.50;;
5147;SDS011;2592;48.140;7.614;2023-04-06T05:50:29;14.73;;;10.37;;
5147;SDS011;2592;48.140;7.614;2023-04-06T05:52:56;14.93;;;11.20;;
5147;SDS011;2592;48.140;7.614;2023-04-06T05:55:22;17.97;;;12.60;;
5147;SDS011;2592;48.140;7.614;2023-04-06T05:57:50;20.00;;;14.50;;
5147;SDS011;2592;48.140;7.614;2023-04-06T06:00:16;21.00;;;14.17;;
5147;SDS011;2592;48.140;7.614;2023-04-06T06:02:43;22.83;;;14.80;;
5147;SDS011;2592;48.140;7.614;2023-04-06T06:05:09;25.33;;;13.83;;
5147;SDS011;2592;48.140;7.614;2023-04-06T06:07:36;20.53;;;13.13;;
5147;SDS011;2592;48.140;7.614;2023-04-06T06:10:02;14.93;;;11.03;;
5147;SDS011;2592;48.140;7.614;2023-04-06T06:12:29;12.10;;;10.27;;
5147;SDS011;2592;48.140;7.614;2023-04-06T06:14:57;12.50;;;10.27;;
5147;SDS011;2592;48.140;7.614;2023-04-06T06:17:23;13.37;;;10.30;;
5147;SDS011;2592;48.140;7.614;2023-04-06T06:19:49;17.27;;;11.37;;
5147;SDS011;2592;48.140;7.614;2023-04-06T06:22:16;17.63;;;9.80;;
5147;SDS011;2592;48.140;7.614;2023-04-06T06:24:42;14.57;;;11.40;;
5147;SDS011;2592;48.140;7.614;2023-04-06T06:27:09;13.83;;;11.53;;
5147;SDS011;2592;48.140;7.614;2023-04-06T06:29:35;15.80;;;12.60;;
5147;SDS011;2592;48.140;7.614;2023-04-06T06:32:03;11.70;;;9.40;;
5147;SDS011;2592;48.140;7.614;2023-04-06T06:34:29;14.30;;;9.90;;
5147;SDS011;2592;48.140;7.614;2023-04-06T06:36:56;11.67;;;10.47;;
5147;SDS011;2592;48.140;7.614;2023-04-06T06:39:22;18.53;;;11.27;;
5147;SDS011;2592;48.140;7.614;2023-04-06T06:41:48;29.80;;;18.37;;
5147;SDS011;2592;48.140;7.614;2023-04-06T06:44:15;33.03;;;21.00;;
5147;SDS011;2592;48.140;7.614;2023-04-06T06:46:42;25.57;;;16.07;;
5147;SDS011;2592;48.140;7.614;2023-04-06T06:49:10;40.00;;;23.20;;
5147;SDS011;2592;48.140;7.614;2023-04-06T06:51:37;52.23;;;27.27;;
5147;SDS011;2592;48.140;7.614;2023-04-06T06:54:03;55.30;;;26.77;;
5147;SDS011;2592;48.140;7.614;2023-04-06T06:56:30;16.50;;;11.33;;
5147;SDS011;2592;48.140;7.614;2023-04-06T06:58:56;24.20;;;13.33;;
5147;SDS011;2592;48.140;7.614;2023-04-06T07:01:22;32.97;;;17.63;;
5147;SDS011;2592;48.140;7.614;2023-04-06T07:03:49;30.07;;;17.37;;
5147;SDS011;2592;48.140;7.614;2023-04-06T07:06:16;47.30;;;20.73;;
5147;SDS011;2592;48.140;7.614;2023-04-06T07:08:43;28.87;;;15.97;;
5147;SDS011;2592;48.140;7.614;2023-04-06T07:11:09;23.67;;;13.63;;
5147;SDS011;2592;48.140;7.614;2023-04-06T07:13:36;20.53;;;11.80;;
5147;SDS011;2592;48.140;7.614;2023-04-06T07:16:02;24.03;;;13.87;;
5147;SDS011;2592;48.140;7.614;2023-04-06T07:18:29;31.97;;;16.80;;
5147;SDS011;2592;48.140;7.614;2023-04-06T07:20:55;36.03;;;18.90;;
5147;SDS011;2592;48.140;7.614;2023-04-06T07:23:23;22.60;;;13.83;;
5147;SDS011;2592;48.140;7.614;2023-04-06T07:25:49;23.33;;;14.07;;
5147;SDS011;2592;48.140;7.614;2023-04-06T07:28:17;15.83;;;11.70;;
5147;SDS011;2592;48.140;7.614;2023-04-06T07:30:43;9.57;;;8.10;;
5147;SDS011;2592;48.140;7.614;2023-04-06T07:33:10;10.40;;;8.00;;
5147;SDS011;2592;48.140;7.614;2023-04-06T07:35:36;10.43;;;7.40;;
5147;SDS011;2592;48.140;7.614;2023-04-06T07:38:02;10.33;;;7.27;;
5147;SDS011;2592;48.140;7.614;2023-04-06T07:40:30;10.43;;;8.00;;
5147;SDS011;2592;48.140;7.614;2023-04-06T07:42:57;9.73;;;6.50;;
5147;SDS011;2592;48.140;7.614;2023-04-06T07:45:24;8.47;;;7.20;;
5147;SDS011;2592;48.140;7.614;2023-04-06T07:47:50;11.87;;;8.90;;
5147;SDS011;2592;48.140;7.614;2023-04-06T07:50:16;13.30;;;9.43;;
5147;SDS011;2592;48.140;7.614;2023-04-06T07:52:43;8.10;;;6.43;;
5147;SDS011;2592;48.140;7.614;2023-04-06T07:55:09;12.40;;;8.63;;
5147;SDS011;2592;48.140;7.614;2023-04-06T07:57:37;8.83;;;7.27;;
5147;SDS011;2592;48.140;7.614;2023-04-06T08:00:04;9.53;;;6.20;;
5147;SDS011;2592;48.140;7.614;2023-04-06T08:02:31;6.50;;;5.47;;
5147;SDS011;2592;48.140;7.614;2023-04-06T08:04:57;7.23;;;6.17;;
5147;SDS011;2592;48.140;7.614;2023-04-06T08:07:23;11.07;;;7.40;;
5147;SDS011;2592;48.140;7.614;2023-04-06T08:09:50;7.07;;;5.83;;
5147;SDS011;2592;48.140;7.614;2023-04-06T08:12:16;13.83;;;6.63;;
5147;SDS011;2592;48.140;7.614;2023-04-06T08:14:44;8.13;;;6.17;;
5147;SDS011;2592;48.140;7.614;2023-04-06T08:17:11;10.77;;;6.57;;
5147;SDS011;2592;48.140;7.614;2023-04-06T08:19:37;11.33;;;6.37;;
5147;SDS011;2592;48.140;7.614;2023-04-06T08:22:04;9.60;;;7.17;;
5147;SDS011;2592;48.140;7.614;2023-04-06T08:24:30;14.57;;;10.23;;
5147;SDS011;2592;48.140;7.614;2023-04-06T08:26:57;14.10;;;8.77;;
5147;SDS011;2592;48.140;7.614;2023-04-06T08:29:23;17.53;;;6.70;;
5147;SDS011;2592;48.140;7.614;2023-04-06T08:31:51;11.70;;;9.17;;
5147;SDS011;2592;48.140;7.614;2023-04-06T08:34:17;13.00;;;8.60;;
5147;SDS011;2592;48.140;7.614;2023-04-06T08:36:44;8.27;;;7.27;;
5147;SDS011;2592;48.140;7.614;2023-04-06T08:39:11;8.70;;;6.90;;
5147;SDS011;2592;48.140;7.614;2023-04-06T08:41:38;15.70;;;10.20;;
5147;SDS011;2592;48.140;7.614;2023-04-06T08:44:07;19.10;;;10.40;;
5147;SDS011;2592;48.140;7.614;2023-04-06T08:46:33;12.23;;;8.80;;
5147;SDS011;2592;48.140;7.614;2023-04-06T08:49:02;22.80;;;13.47;;
5147;SDS011;2592;48.140;7.614;2023-04-06T08:51:31;17.87;;;7.53;;
5147;SDS011;2592;48.140;7.614;2023-04-06T08:53:58;11.67;;;8.93;;
5147;SDS011;2592;48.140;7.614;2023-04-06T08:56:25;23.33;;;6.97;;
5147;SDS011;2592;48.140;7.614;2023-04-06T08:58:52;12.63;;;7.30;;
5147;SDS011;2592;48.140;7.614;2023-04-06T09:01:20;16.97;;;8.90;;
5147;SDS011;2592;48.140;7.614;2023-04-06T09:03:47;13.13;;;7.70;;
5147;SDS011;2592;48.140;7.614;2023-04-06T09:06:15;10.03;;;6.50;;
5147;SDS011;2592;48.140;7.614;2023-04-06T09:08:42;21.20;;;10.73;;
5147;SDS011;2592;48.140;7.614;2023-04-06T09:11:08;18.00;;;9.33;;
5147;SDS011;2592;48.140;7.614;2023-04-06T09:13:44;10.40;;;7.10;;
5147;SDS011;2592;48.140;7.614;2023-04-06T09:16:10;15.80;;;10.30;;
5147;SDS011;2592;48.140;7.614;2023-04-06T09:18:37;15.27;;;9.43;;
5147;SDS011;2592;48.140;7.614;2023-04-06T09:21:04;16.23;;;8.87;;
5147;SDS011;2592;48.140;7.614;2023-04-06T09:23:32;10.90;;;8.00;;
5147;SDS011;2592;48.140;7.614;2023-04-06T09:26:08;7.90;;;6.50;;
5147;SDS011;2592;48.140;7.614;2023-04-06T09:28:42;9.90;;;7.73;;
5147;SDS011;2592;48.140;7.614;2023-04-06T09:31:09;14.63;;;9.03;;
5147;SDS011;2592;48.140;7.614;2023-04-06T09:33:37;12.10;;;9.20;;
5147;SDS011;2592;48.140;7.614;2023-04-06T09:36:04;11.07;;;8.13;;
5147;SDS011;2592;48.140;7.614;2023-04-06T09:38:31;9.40;;;7.50;;
5147;SDS011;2592;48.140;7.614;2023-04-06T09:40:58;14.30;;;8.53;;
5147;SDS011;2592;48.140;7.614;2023-04-06T09:43:24;12.03;;;9.17;;
5147;SDS011;2592;48.140;7.614;2023-04-06T09:45:51;20.67;;;12.30;;
5147;SDS011;2592;48.140;7.614;2023-04-06T09:48:17;10.07;;;7.50;;
5147;SDS011;2592;48.140;7.614;2023-04-06T09:50:45;16.33;;;8.17;;
5147;SDS011;2592;48.140;7.614;2023-04-06T09:53:12;9.87;;;7.60;;
5147;SDS011;2592;48.140;7.614;2023-04-06T09:55:42;11.30;;;8.20;;
5147;SDS011;2592;48.140;7.614;2023-04-06T09:58:09;11.90;;;7.83;;
5147;SDS011;2592;48.140;7.614;2023-04-06T10:00:40;10.90;;;7.97;;
5147;SDS011;2592;48.140;7.614;2023-04-06T10:03:07;14.17;;;9.20;;
5147;SDS011;2592;48.140;7.614;2023-04-06T10:05:37;13.77;;;10.17;;
5147;SDS011;2592;48.140;7.614;2023-04-06T10:08:05;10.07;;;7.57;;
5147;SDS011;2592;48.140;7.614;2023-04-06T10:10:32;11.00;;;7.47;;
5147;SDS011;2592;48.140;7.614;2023-04-06T10:13:00;15.93;;;9.10;;
5147;SDS011;2592;48.140;7.614;2023-04-06T10:15:27;13.63;;;8.70;;
5147;SDS011;2592;48.140;7.614;2023-04-06T10:17:54;51.93;;;27.70;;
5147;SDS011;2592;48.140;7.614;2023-04-06T10:20:21;12.13;;;8.93;;
5147;SDS011;2592;48.140;7.614;2023-04-06T10:22:51;11.30;;;8.17;;
5147;SDS011;2592;48.140;7.614;2023-04-06T10:25:26;18.07;;;10.17;;
5147;SDS011;2592;48.140;7.614;2023-04-06T10:27:59;18.67;;;11.30;;
5147;SDS011;2592;48.140;7.614;2023-04-06T10:30:26;44.40;;;23.37;;
5147;SDS011;2592;48.140;7.614;2023-04-06T10:32:52;21.23;;;11.63;;
5147;SDS011;2592;48.140;7.614;2023-04-06T10:35:19;10.50;;;7.43;;
5147;SDS011;2592;48.140;7.614;2023-04-06T10:37:46;19.87;;;10.20;;
5147;SDS011;2592;48.140;7.614;2023-04-06T10:40:17;12.30;;;6.93;;
5147;SDS011;2592;48.140;7.614;2023-04-06T10:42:44;37.53;;;19.10;;
5147;SDS011;2592;48.140;7.614;2023-04-06T10:45:19;14.23;;;7.37;;
5147;SDS011;2592;48.140;7.614;2023-04-06T10:47:46;14.80;;;7.20;;
5147;SDS011;2592;48.140;7.614;2023-04-06T10:50:14;11.67;;;7.83;;
5147;SDS011;2592;48.140;7.614;2023-04-06T10:52:41;28.00;;;9.67;;
5147;SDS011;2592;48.140;7.614;2023-04-06T10:55:08;32.80;;;15.63;;
5147;SDS011;2592;48.140;7.614;2023-04-06T10:57:35;19.13;;;10.30;;
5147;SDS011;2592;48.140;7.614;2023-04-06T11:00:02;13.67;;;7.90;;
5147;SDS011;2592;48.140;7.614;2023-04-06T11:02:30;7.57;;;6.20;;
5147;SDS011;2592;48.140;7.614;2023-04-06T11:04:57;9.87;;;6.83;;
5147;SDS011;2592;48.140;7.614;2023-04-06T11:07:24;8.83;;;5.50;;
5147;SDS011;2592;48.140;7.614;2023-04-06T11:09:51;8.50;;;6.83;;
5147;SDS011;2592;48.140;7.614;2023-04-06T11:12:22;9.63;;;7.27;;
5147;SDS011;2592;48.140;7.614;2023-04-06T11:14:55;12.97;;;6.50;;
5147;SDS011;2592;48.140;7.614;2023-04-06T11:17:26;15.87;;;7.87;;
5147;SDS011;2592;48.140;7.614;2023-04-06T11:19:54;9.17;;;6.53;;
5147;SDS011;2592;48.140;7.614;2023-04-06T11:22:20;13.80;;;6.70;;
5147;SDS011;2592;48.140;7.614;2023-04-06T11:24:47;8.57;;;6.87;;
5147;SDS011;2592;48.140;7.614;2023-04-06T11:27:14;9.77;;;7.33;;
5147;SDS011;2592;48.140;7.614;2023-04-06T11:29:41;12.70;;;6.80;;
5147;SDS011;2592;48.140;7.614;2023-04-06T11:32:07;8.30;;;6.00;;
5147;SDS011;2592;48.140;7.614;2023-04-06T11:34:34;10.30;;;6.53;;
5147;SDS011;2592;48.140;7.614;2023-04-06T11:37:03;10.40;;;6.17;;
5147;SDS011;2592;48.140;7.614;2023-04-06T11:39:31;11.07;;;6.90;;
5147;SDS011;2592;48.140;7.614;2023-04-06T11:41:58;8.03;;;6.17;;
5147;SDS011;2592;48.140;7.614;2023-04-06T11:44:29;8.20;;;6.20;;
5147;SDS011;2592;48.140;7.614;2023-04-06T11:46:56;8.33;;;6.30;;
5147;SDS011;2592;48.140;7.614;2023-04-06T11:49:26;9.63;;;7.03;;
5147;SDS011;2592;48.140;7.614;2023-04-06T11:51:52;7.20;;;5.93;;
5147;SDS011;2592;48.140;7.614;2023-04-06T11:54:30;19.87;;;6.10;;
5147;SDS011;2592;48.140;7.614;2023-04-06T11:56:56;7.60;;;5.23;;
5147;SDS011;2592;48.140;7.614;2023-04-06T11:59:22;10.83;;;6.10;;
5147;SDS011;2592;48.140;7.614;2023-04-06T12:01:49;9.70;;;5.60;;
5147;SDS011;2592;48.140;7.614;2023-04-06T12:04:17;11.40;;;6.47;;
5147;SDS011;2592;48.140;7.614;2023-04-06T12:06:43;16.23;;;7.53;;
5147;SDS011;2592;48.140;7.614;2023-04-06T12:09:09;14.30;;;9.50;;
5147;SDS011;2592;48.140;7.614;2023-04-06T12:11:37;8.50;;;6.17;;
5147;SDS011;2592;48.140;7.614;2023-04-06T12:14:04;19.10;;;7.17;;
5147;SDS011;2592;48.140;7.614;2023-04-06T12:16:32;11.90;;;8.03;;
5147;SDS011;2592;48.140;7.614;2023-04-06T12:18:59;8.13;;;5.40;;
5147;SDS011;2592;48.140;7.614;2023-04-06T12:21:26;9.53;;;6.47;;
5147;SDS011;2592;48.140;7.614;2023-04-06T12:23:52;21.10;;;12.20;;
5147;SDS011;2592;48.140;7.614;2023-04-06T12:26:19;12.00;;;7.83;;
5147;SDS011;2592;48.140;7.614;2023-04-06T12:28:47;8.63;;;5.27;;
5147;SDS011;2592;48.140;7.614;2023-04-06T12:31:16;6.90;;;4.90;;
5147;SDS011;2592;48.140;7.614;2023-04-06T12:33:43;11.27;;;7.37;;
5147;SDS011;2592;48.140;7.614;2023-04-06T12:36:11;7.70;;;5.30;;
5147;SDS011;2592;48.140;7.614;2023-04-06T12:38:37;7.70;;;5.87;;
5147;SDS011;2592;48.140;7.614;2023-04-06T12:41:05;8.67;;;6.20;;
5147;SDS011;2592;48.140;7.614;2023-04-06T12:43:31;7.83;;;5.03;;
5147;SDS011;2592;48.140;7.614;2023-04-06T12:45:59;9.07;;;5.13;;
5147;SDS011;2592;48.140;7.614;2023-04-06T12:48:25;7.30;;;5.63;;
5147;SDS011;2592;48.140;7.614;2023-04-06T12:50:55;6.93;;;4.90;;
5147;SDS011;2592;48.140;7.614;2023-04-06T12:53:22;7.17;;;5.27;;
5147;SDS011;2592;48.140;7.614;2023-04-06T12:55:48;6.40;;;5.00;;
5147;SDS011;2592;48.140;7.614;2023-04-06T12:58:15;9.00;;;6.07;;
5147;SDS011;2592;48.140;7.614;2023-04-06T13:00:42;9.10;;;5.17;;
5147;SDS011;2592;48.140;7.614;2023-04-06T13:03:10;8.33;;;5.20;;
5147;SDS011;2592;48.140;7.614;2023-04-06T13:05:36;13.60;;;5.07;;
5147;SDS011;2592;48.140;7.614;2023-04-06T13:08:09;8.87;;;5.73;;
5147;SDS011;2592;48.140;7.614;2023-04-06T13:10:35;9.70;;;5.50;;
5147;SDS011;2592;48.140;7.614;2023-04-06T13:13:02;8.40;;;5.97;;
5147;SDS011;2592;48.140;7.614;2023-04-06T13:15:28;6.10;;;4.70;;
5147;SDS011;2592;48.140;7.614;2023-04-06T13:17:54;8.40;;;5.20;;
5147;SDS011;2592;48.140;7.614;2023-04-06T13:20:22;8.30;;;5.60;;
5147;SDS011;2592;48.140;7.614;2023-04-06T13:22:49;6.33;;;4.60;;
5147;SDS011;2592;48.140;7.614;2023-04-06T13:25:15;8.00;;;5.50;;
5147;SDS011;2592;48.140;7.614;2023-04-06T13:27:42;8.13;;;5.77;;
5147;SDS011;2592;48.140;7.614;2023-04-06T13:30:11;13.10;;;5.40;;
5147;SDS011;2592;48.140;7.614;2023-04-06T13:32:38;10.33;;;6.30;;
5147;SDS011;2592;48.140;7.614;2023-04-06T13:35:04;6.57;;;5.17;;
5147;SDS011;2592;48.140;7.614;2023-04-06T13:37:33;7.30;;;5.23;;
5147;SDS011;2592;48.140;7.614;2023-04-06T13:39:59;8.53;;;6.23;;
5147;SDS011;2592;48.140;7.614;2023-04-06T13:42:26;9.13;;;5.77;;
5147;SDS011;2592;48.140;7.614;2023-04-06T13:44:53;7.60;;;5.50;;
5147;SDS011;2592;48.140;7.614;2023-04-06T13:47:19;12.20;;;7.40;;
5147;SDS011;2592;48.140;7.614;2023-04-06T13:49:46;7.63;;;5.60;;
5147;SDS011;2592;48.140;7.614;2023-04-06T13:52:12;7.03;;;5.40;;
5147;SDS011;2592;48.140;7.614;2023-04-06T13:54:40;8.00;;;5.20;;
5147;SDS011;2592;48.140;7.614;2023-04-06T13:57:07;7.83;;;6.47;;
5147;SDS011;2592;48.140;7.614;2023-04-06T13:59:33;9.83;;;6.07;;
5147;SDS011;2592;48.140;7.614;2023-04-06T14:02:00;9.50;;;7.00;;
5147;SDS011;2592;48.140;7.614;2023-04-06T14:04:27;8.47;;;5.80;;
5147;SDS011;2592;48.140;7.614;2023-04-06T14:06:53;7.73;;;4.80;;
5147;SDS011;2592;48.140;7.614;2023-04-06T14:09:20;9.27;;;6.53;;
5147;SDS011;2592;48.140;7.614;2023-04-06T14:11:48;8.00;;;6.07;;
5147;SDS011;2592;48.140;7.614;2023-04-06T14:14:14;7.97;;;5.67;;
5147;SDS011;2592;48.140;7.614;2023-04-06T14:16:41;8.70;;;5.43;;
5147;SDS011;2592;48.140;7.614;2023-04-06T14:19:09;8.27;;;5.90;;
5147;SDS011;2592;48.140;7.614;2023-04-06T14:21:36;8.37;;;6.07;;
5147;SDS011;2592;48.140;7.614;2023-04-06T14:24:02;8.80;;;6.17;;
5147;SDS011;2592;48.140;7.614;2023-04-06T14:26:29;8.03;;;5.47;;
5147;SDS011;2592;48.140;7.614;2023-04-06T14:28:56;7.30;;;5.17;;
5147;SDS011;2592;48.140;7.614;2023-04-06T14:31:23;7.00;;;5.47;;
5147;SDS011;2592;48.140;7.614;2023-04-06T14:33:49;7.90;;;5.77;;
5147;SDS011;2592;48.140;7.614;2023-04-06T14:36:16;9.00;;;6.37;;
5147;SDS011;2592;48.140;7.614;2023-04-06T14:38:42;8.53;;;6.00;;
5147;SDS011;2592;48.140;7.614;2023-04-06T14:41:14;7.93;;;6.23;;
5147;SDS011;2592;48.140;7.614;2023-04-06T14:43:40;5.83;;;4.77;;
5147;SDS011;2592;48.140;7.614;2023-04-06T14:46:08;9.80;;;5.70;;
5147;SDS011;2592;48.140;7.614;2023-04-06T14:48:35;9.17;;;4.70;;
5147;SDS011;2592;48.140;7.614;2023-04-06T14:51:01;7.00;;;4.90;;
5147;SDS011;2592;48.140;7.614;2023-04-06T14:53:28;9.80;;;4.50;;
5147;SDS011;2592;48.140;7.614;2023-04-06T14:55:54;4.87;;;3.77;;
5147;SDS011;2592;48.140;7.614;2023-04-06T14:58:21;6.50;;;3.77;;
5147;SDS011;2592;48.140;7.614;2023-04-06T15:00:48;5.90;;;4.77;;
5147;SDS011;2592;48.140;7.614;2023-04-06T15:03:16;6.33;;;4.67;;